createdAt,value
2023-10-25T00:04:10.481Z,1.65
2023-10-25T00:08:23.163Z,1.98
2023-10-25T00:12:35.812Z,1.98
2023-10-25T00:16:48.425Z,2.33
2023-10-25T00:21:01.003Z,2.15
2023-10-25T00:25:13.573Z,1.98
2023-10-25T00:29:26.200Z,2.60
2023-10-25T00:33:38.786Z,3.10
2023-10-25T00:37:51.367Z,2.22
2023-10-25T00:42:03.960Z,2.17
2023-10-25T00:46:26.983Z,3.10
2023-10-25T00:50:40.417Z,2.33
2023-10-25T00:54:53.767Z,2.20
2023-10-25T00:59:06.675Z,2.35
2023-10-25T01:03:19.960Z,2.55
2023-10-25T01:07:32.665Z,2.58
2023-10-25T01:11:45.215Z,2.85
2023-10-25T01:15:58.055Z,2.30
2023-10-25T01:20:11.317Z,2.10
2023-10-25T01:24:24.979Z,2.00
2023-10-25T01:28:37.589Z,2.67
2023-10-25T01:32:50.216Z,2.25
2023-10-25T01:37:02.933Z,1.73
2023-10-25T01:41:18.271Z,2.10
2023-10-25T01:45:32.349Z,1.88
2023-10-25T01:49:45.277Z,1.88
2023-10-25T01:53:57.837Z,1.83
2023-10-25T01:58:10.862Z,1.63
2023-10-25T02:02:23.977Z,1.60
2023-10-25T02:06:46.687Z,2.17
2023-10-25T02:10:59.273Z,1.60
2023-10-25T02:15:12.315Z,1.67
2023-10-25T02:19:24.874Z,1.50
2023-10-25T02:23:40.632Z,2.00
2023-10-25T02:27:53.216Z,1.77
2023-10-25T02:32:09.617Z,1.58
2023-10-25T02:36:22.232Z,1.50
2023-10-25T02:40:34.786Z,1.45
2023-10-25T02:44:47.681Z,1.63
2023-10-25T02:49:00.299Z,1.67
2023-10-25T02:53:12.885Z,1.30
2023-10-25T02:57:26.838Z,1.42
2023-10-25T03:01:39.514Z,1.40
2023-10-25T03:05:52.610Z,1.30
2023-10-25T03:10:05.817Z,1.27
2023-10-25T03:14:18.423Z,1.63
2023-10-25T03:18:30.976Z,1.25
2023-10-25T03:22:43.739Z,1.60
2023-10-25T03:26:56.268Z,1.30
2023-10-25T03:31:10.582Z,1.23
2023-10-25T03:35:23.375Z,1.15
2023-10-25T03:39:37.606Z,1.23
2023-10-25T03:43:50.150Z,1.27
2023-10-25T03:48:02.838Z,1.42
2023-10-25T03:52:15.531Z,1.08
2023-10-25T03:56:28.241Z,1.23
2023-10-25T04:00:40.779Z,1.65
2023-10-25T04:04:53.407Z,1.20
2023-10-25T04:09:10.095Z,1.02
2023-10-25T04:13:24.117Z,1.20
2023-10-25T04:17:36.732Z,1.40
2023-10-25T04:21:49.343Z,0.80
2023-10-25T04:26:20.179Z,1.30
2023-10-25T04:30:35.068Z,1.40
2023-10-25T04:34:47.575Z,1.50
2023-10-25T04:39:00.103Z,1.10
2023-10-25T04:43:12.712Z,1.30
2023-10-25T04:47:25.721Z,1.20
2023-10-25T04:51:38.380Z,1.30
2023-10-25T04:55:51.354Z,1.42
2023-10-25T05:00:04.424Z,1.50
2023-10-25T05:04:17.051Z,1.05
2023-10-25T05:08:30.115Z,1.30
2023-10-25T05:12:48.928Z,1.20
2023-10-25T05:17:07.540Z,1.02
2023-10-25T05:21:20.978Z,0.95
2023-10-25T05:25:34.078Z,1.17
2023-10-25T05:29:47.039Z,1.30
2023-10-25T05:34:00.089Z,1.05
2023-10-25T05:38:13.188Z,1.58
2023-10-25T05:42:26.761Z,1.27
2023-10-25T05:46:39.488Z,1.20
2023-10-25T05:50:53.006Z,1.10
2023-10-25T05:55:06.523Z,1.00
2023-10-25T05:59:19.460Z,0.90
2023-10-25T06:03:32.748Z,1.40
2023-10-25T06:07:45.883Z,1.00
2023-10-25T06:11:58.846Z,1.00
2023-10-25T06:16:12.020Z,1.20
2023-10-25T06:20:24.635Z,1.35
2023-10-25T06:24:37.189Z,1.30
2023-10-25T06:28:49.812Z,1.20
2023-10-25T06:33:02.407Z,1.30
2023-10-25T06:37:15.445Z,1.30
2023-10-25T06:41:28.395Z,1.10
2023-10-25T06:45:41.668Z,1.15
2023-10-25T06:49:54.724Z,1.23
2023-10-25T06:54:08.345Z,1.33
2023-10-25T06:58:21.333Z,1.30
2023-10-25T07:02:52.208Z,1.30
2023-10-25T07:07:11.444Z,1.23
2023-10-25T07:11:25.289Z,1.02
2023-10-25T07:15:38.424Z,1.13
2023-10-25T07:19:51.054Z,1.00
2023-10-25T07:24:03.592Z,1.30
2023-10-25T07:28:16.603Z,1.10
2023-10-25T07:32:29.223Z,1.50
2023-10-25T07:36:41.740Z,1.30
2023-10-25T07:40:54.624Z,1.20
2023-10-25T07:45:07.664Z,0.98
2023-10-25T07:49:20.361Z,1.20
2023-10-25T07:53:33.457Z,1.00
2023-10-25T08:02:01.597Z,1.00
2023-10-25T08:06:15.011Z,0.85
2023-10-25T08:10:28.357Z,1.00
2023-10-25T08:14:41.034Z,0.90
2023-10-25T08:18:53.727Z,0.68
2023-10-25T08:23:06.304Z,0.70
2023-10-25T08:27:20.447Z,1.02
2023-10-25T08:31:37.173Z,0.93
2023-10-25T08:35:50.514Z,1.00
2023-10-25T08:40:05.488Z,0.90
2023-10-25T08:44:18.450Z,0.90
2023-10-25T08:48:32.729Z,0.80
2023-10-25T08:52:47.057Z,0.80
2023-10-25T08:56:59.905Z,0.60
2023-10-25T09:01:12.589Z,0.90
2023-10-25T09:05:25.222Z,0.45
2023-10-25T09:09:41.499Z,0.60
2023-10-25T09:13:58.994Z,0.50
2023-10-25T09:18:11.624Z,0.30
2023-10-25T09:22:28.192Z,0.30
2023-10-25T09:26:41.640Z,0.30
2023-10-25T09:30:54.414Z,0.38
2023-10-25T09:35:08.267Z,0.50
2023-10-25T09:39:20.846Z,0.45
2023-10-25T09:43:34.499Z,0.50
2023-10-25T09:47:51.384Z,0.50
2023-10-25T09:52:18.352Z,0.40
2023-10-25T09:56:31.360Z,0.40
2023-10-25T10:00:44.300Z,0.25
2023-10-25T10:05:08.128Z,0.10
2023-10-25T10:09:36.061Z,0.40
2023-10-25T10:14:10.198Z,0.17
2023-10-25T10:18:22.931Z,0.40
2023-10-25T10:22:35.975Z,0.30
2023-10-25T10:26:49.576Z,0.43
2023-10-25T10:31:02.708Z,0.10
2023-10-25T10:35:23.698Z,0.20
2023-10-25T10:39:38.142Z,0.28
2023-10-25T10:43:50.679Z,0.20
2023-10-25T10:48:24.649Z,0.20
2023-10-25T10:52:37.334Z,0.20
2023-10-25T10:56:49.888Z,0.20
2023-10-25T11:01:02.412Z,0.20
2023-10-25T11:05:17.477Z,0.30
2023-10-25T11:09:30.122Z,0.35
2023-10-25T11:13:42.749Z,0.10
2023-10-25T11:17:55.810Z,0.17
2023-10-25T11:22:08.454Z,0.30
2023-10-25T11:26:21.012Z,0.30
2023-10-25T11:30:36.619Z,0.28
2023-10-25T11:34:54.151Z,0.30
2023-10-25T11:39:10.631Z,0.10
2023-10-25T11:43:23.249Z,0.43
2023-10-25T11:47:36.459Z,0.50
2023-10-25T11:51:49.568Z,0.55
2023-10-25T11:56:02.087Z,0.38
2023-10-25T12:00:15.396Z,0.30
2023-10-25T12:04:27.981Z,0.40
2023-10-25T12:08:44.386Z,0.50
2023-10-25T12:12:56.996Z,0.40
2023-10-25T12:17:09.727Z,0.43
2023-10-25T12:21:22.325Z,0.40
2023-10-25T12:25:36.789Z,0.40
2023-10-25T12:29:49.398Z,0.40
2023-10-25T12:34:02.750Z,0.40
2023-10-25T12:38:15.277Z,0.25
2023-10-25T12:42:27.847Z,0.20
2023-10-25T12:46:41.443Z,0.20
2023-10-25T12:50:57.165Z,0.25
2023-10-25T12:55:11.612Z,0.20
2023-10-25T12:59:24.143Z,0.30
2023-10-25T13:03:36.675Z,0.32
2023-10-25T13:07:49.331Z,0.20
2023-10-25T13:12:03.211Z,0.40
2023-10-25T13:16:15.883Z,0.20
2023-10-25T13:20:28.510Z,0.50
2023-10-25T13:24:41.264Z,0.28
2023-10-25T13:28:56.613Z,0.10
2023-10-25T13:33:09.252Z,0.25
2023-10-25T13:37:23.037Z,0.30
2023-10-25T13:41:35.835Z,0.40
2023-10-25T13:45:48.432Z,0.20
2023-10-25T13:50:01.065Z,0.25
2023-10-25T13:54:13.604Z,0.20
2023-10-25T13:58:26.131Z,0.40
2023-10-25T14:02:38.814Z,0.32
2023-10-25T14:06:52.983Z,0.50
2023-10-25T14:11:05.533Z,0.50
2023-10-25T14:15:18.087Z,0.40
2023-10-25T14:19:30.657Z,0.70
2023-10-25T14:23:45.312Z,0.75
2023-10-25T14:27:57.889Z,1.15
2023-10-25T14:32:10.479Z,0.73
2023-10-25T14:36:23.046Z,1.00
2023-10-25T14:40:41.233Z,0.45
2023-10-25T14:44:53.849Z,0.67
2023-10-25T14:49:07.706Z,0.50
2023-10-25T14:53:22.466Z,0.45
2023-10-25T14:57:35.060Z,0.75
2023-10-25T15:01:47.621Z,0.50
2023-10-25T15:06:00.251Z,0.47
2023-10-25T15:10:12.878Z,0.40
2023-10-25T15:14:26.308Z,0.60
2023-10-25T15:18:41.483Z,0.57
2023-10-25T15:22:55.005Z,0.30
2023-10-25T15:27:08.037Z,0.40
2023-10-25T15:31:21.748Z,0.50
2023-10-25T15:35:34.795Z,0.50
2023-10-25T15:40:00.461Z,0.50
2023-10-25T15:44:19.664Z,0.28
2023-10-25T15:48:32.452Z,0.40
2023-10-25T15:52:49.900Z,0.30
2023-10-25T15:57:08.005Z,0.32
2023-10-25T16:01:31.562Z,0.32
2023-10-25T16:05:46.162Z,0.30
2023-10-25T16:09:58.715Z,0.40
2023-10-25T16:14:12.053Z,0.43
2023-10-25T16:18:25.090Z,0.40
2023-10-25T16:22:37.709Z,0.45
2023-10-25T16:26:50.254Z,0.38
2023-10-25T16:31:06.902Z,0.40
2023-10-25T16:35:19.448Z,0.50
2023-10-25T16:39:32.739Z,0.70
2023-10-25T16:43:45.295Z,0.63
2023-10-25T16:47:57.828Z,0.80
2023-10-25T16:52:10.376Z,0.40
2023-10-25T16:56:23.012Z,0.75
2023-10-25T17:00:35.805Z,0.55
2023-10-25T17:04:48.519Z,0.60
2023-10-25T17:09:01.116Z,0.55
2023-10-25T17:13:14.079Z,0.60
2023-10-25T17:17:27.142Z,0.75
2023-10-25T17:21:39.801Z,0.82
2023-10-25T17:25:52.814Z,1.40
2023-10-25T17:30:07.175Z,0.98
2023-10-25T17:34:19.757Z,0.77
2023-10-25T17:38:34.216Z,0.90
2023-10-25T17:42:48.106Z,0.70
2023-10-25T17:47:00.661Z,0.80
2023-10-25T17:51:13.672Z,1.17
2023-10-25T17:55:26.638Z,2.53
2023-10-25T17:59:39.170Z,1.50
2023-10-25T18:03:51.755Z,0.68
2023-10-25T18:08:04.378Z,0.50
2023-10-25T18:12:19.431Z,0.60
2023-10-25T18:16:32.040Z,0.80
2023-10-25T18:20:45.541Z,0.73
2023-10-25T18:24:58.108Z,0.73
2023-10-25T18:29:10.645Z,0.60
2023-10-25T18:33:24.389Z,0.93
2023-10-25T18:37:37.211Z,0.70
2023-10-25T18:41:50.916Z,0.88
2023-10-25T18:46:06.259Z,1.30
2023-10-25T18:50:18.803Z,1.48
2023-10-25T18:54:32.065Z,1.38
2023-10-25T18:58:44.523Z,1.05
2023-10-25T19:02:57.711Z,1.35
2023-10-25T19:07:21.598Z,1.15
2023-10-25T19:11:37.248Z,1.00
2023-10-25T19:15:50.597Z,0.80
2023-10-25T19:24:21.238Z,1.13
2023-10-25T19:28:34.199Z,1.10
2023-10-25T19:32:46.737Z,1.10
2023-10-25T19:37:01.972Z,0.85
2023-10-25T19:41:14.543Z,0.80
2023-10-25T19:45:27.172Z,1.23
2023-10-25T19:49:39.710Z,1.00
2023-10-25T19:53:52.269Z,0.63
2023-10-25T19:58:04.844Z,0.73
2023-10-25T20:02:17.435Z,0.60
2023-10-25T20:06:29.926Z,0.90
2023-10-25T20:10:42.441Z,0.73
2023-10-25T20:14:55.064Z,0.80
2023-10-25T20:19:08.638Z,0.80
2023-10-25T20:23:21.156Z,0.40
2023-10-25T20:27:35.205Z,0.52
2023-10-25T20:31:50.033Z,0.82
2023-10-25T20:36:02.599Z,0.50
2023-10-25T20:40:15.681Z,0.40
2023-10-25T20:44:28.197Z,0.20
2023-10-25T20:48:40.670Z,0.40
2023-10-25T20:52:53.229Z,0.20
2023-10-25T20:57:09.981Z,0.45
2023-10-25T21:01:22.519Z,0.55
2023-10-25T21:05:35.101Z,0.20
2023-10-25T21:09:47.819Z,0.10
2023-10-25T21:14:00.374Z,0.28
2023-10-25T21:18:12.933Z,0.20
2023-10-25T21:22:25.421Z,0.13
2023-10-25T21:26:37.946Z,0.20
2023-10-25T21:30:50.433Z,0.40
2023-10-25T21:35:03.886Z,0.30
2023-10-25T21:39:16.432Z,0.10
2023-10-25T21:43:28.938Z,0.00
2023-10-25T21:47:41.505Z,0.13
2023-10-25T21:51:53.975Z,0.20
2023-10-25T21:56:24.536Z,0.13
2023-10-25T22:00:38.012Z,0.10
2023-10-25T22:04:50.606Z,0.00
2023-10-25T22:09:03.155Z,0.20
2023-10-25T22:13:16.009Z,0.05
2023-10-25T22:17:29.734Z,0.28
2023-10-25T22:21:44.964Z,0.03
2023-10-25T22:25:57.459Z,0.22
2023-10-25T22:30:10.421Z,0.05
2023-10-25T22:34:23.334Z,0.20
2023-10-25T22:38:36.292Z,0.20
2023-10-25T22:42:48.810Z,0.05
2023-10-25T22:47:01.392Z,0.30
2023-10-25T22:51:14.263Z,0.30
2023-10-25T22:55:27.270Z,0.10
2023-10-25T22:59:39.868Z,0.20
2023-10-25T23:03:52.509Z,0.10
2023-10-25T23:08:05.413Z,0.15
2023-10-25T23:12:21.623Z,0.65
2023-10-25T23:16:34.766Z,0.22
2023-10-25T23:20:52.263Z,0.10
2023-10-25T23:25:06.809Z,0.20
2023-10-25T23:29:19.592Z,0.10
2023-10-25T23:33:36.965Z,0.17
2023-10-25T23:37:49.754Z,0.13
2023-10-25T23:42:02.379Z,0.32
2023-10-25T23:46:15.040Z,0.00
2023-10-25T23:50:27.962Z,0.00
2023-10-25T23:54:52.823Z,0.13
2023-10-25T23:59:07.350Z,0.10
